Time;durP1;ratioP1;P1;durP2;ratioP2;P2;SDS_P1;SDS_P2;PMS_P1;PMS_P2;Temp;Humidity;BMP_temperature;BMP_pressure;BME280_temperature;BME280_humidity;BME280_pressure;Samples;Min_cycle;Max_cycle;Signal;HPM_P1;HPM_P2
2021/01/30 00:00:27;;;;;;;26.92;6.05;;;;;;;7.34;100.00;99550.16;5077680;28;20071;-54
2021/01/30 00:02:55;;;;;;;17.88;5.30;;;;;;;7.23;100.00;99556.69;5082449;28;20087;-55
2021/01/30 00:05:23;;;;;;;29.83;6.22;;;;;;;7.30;100.00;99551.50;5078768;28;20051;-55
2021/01/30 00:07:51;;;;;;;22.08;6.38;;;;;;;7.23;100.00;99552.22;5084274;28;20048;-55
2021/01/30 00:10:19;;;;;;;24.88;6.38;;;;;;;7.34;100.00;99556.31;5082015;28;20044;-55
2021/01/30 00:12:47;;;;;;;15.85;5.28;;;;;;;7.31;100.00;99547.84;5081891;28;20340;-54
2021/01/30 00:15:18;;;;;;;24.15;6.18;;;;;;;7.32;100.00;99550.34;5080110;28;20036;-55
2021/01/30 00:17:46;;;;;;;22.92;4.82;;;;;;;7.33;100.00;99548.50;5080821;28;20047;-56
2021/01/30 00:20:15;;;;;;;24.05;6.90;;;;;;;7.26;100.00;99542.22;5081761;28;20052;-56
2021/01/30 00:22:42;;;;;;;23.52;6.78;;;;;;;7.31;100.00;99547.84;5080551;28;20386;-56
2021/01/30 00:25:11;;;;;;;17.77;7.10;;;;;;;7.27;100.00;99543.91;5081819;28;20032;-55
2021/01/30 00:27:38;;;;;;;26.55;5.53;;;;;;;7.09;100.00;99541.47;5080547;28;20117;-56
2021/01/30 00:30:09;;;;;;;19.77;5.85;;;;;;;7.15;100.00;99530.19;5085709;28;20063;-55
2021/01/30 00:32:36;;;;;;;16.73;5.53;;;;;;;7.13;100.00;99533.00;5081926;28;20051;-56
2021/01/30 00:35:05;;;;;;;27.42;5.95;;;;;;;7.11;100.00;99524.38;5079458;28;20051;-55
2021/01/30 00:37:32;;;;;;;22.38;4.55;;;;;;;7.09;100.00;99529.03;5080630;28;20450;-55
2021/01/30 00:40:00;;;;;;;24.25;5.80;;;;;;;7.06;100.00;99538.16;5080356;28;20115;-55
2021/01/30 00:42:27;;;;;;;19.95;5.13;;;;;;;7.04;100.00;99534.03;5081966;28;20036;-55
2021/01/30 00:44:56;;;;;;;20.48;4.88;;;;;;;7.07;100.00;99533.66;5079784;28;20047;-55
2021/01/30 00:47:23;;;;;;;23.45;6.15;;;;;;;7.08;100.00;99524.72;5082331;28;20040;-56
2021/01/30 00:49:50;;;;;;;23.58;5.30;;;;;;;7.17;100.00;99534.31;5087574;28;20102;-55
2021/01/30 00:52:20;;;;;;;18.23;5.18;;;;;;;7.09;100.00;99521.06;5081868;28;20043;-56
2021/01/30 00:54:47;;;;;;;17.17;5.78;;;;;;;7.30;100.00;99522.28;5079040;28;20043;-55
2021/01/30 00:57:14;;;;;;;27.38;5.13;;;;;;;7.22;100.00;99523.19;5082724;28;20355;-56
2021/01/30 00:59:41;;;;;;;18.25;5.70;;;;;;;7.19;100.00;99526.19;5076729;28;20052;-55
2021/01/30 01:02:10;;;;;;;25.83;5.50;;;;;;;7.22;100.00;99523.19;5085287;28;20330;-56
2021/01/30 01:04:37;;;;;;;28.67;6.22;;;;;;;7.20;100.00;99531.31;5082438;28;20383;-55
2021/01/30 01:07:04;;;;;;;22.77;5.05;;;;;;;7.21;100.00;99532.13;5088354;28;20044;-56
2021/01/30 01:09:32;;;;;;;23.05;5.85;;;;;;;7.27;100.00;99527.97;5080390;28;20043;-54
2021/01/30 01:11:59;;;;;;;24.65;5.70;;;;;;;7.31;100.00;99529.28;5084441;28;20420;-51
2021/01/30 01:14:27;;;;;;;24.98;5.85;;;;;;;7.16;100.00;99530.00;5077169;28;20028;-54
2021/01/30 01:16:56;;;;;;;22.33;5.18;;;;;;;7.14;100.00;99521.38;5080633;28;20052;-53
2021/01/30 01:19:23;;;;;;;21.25;5.90;;;;;;;7.04;100.00;99518.09;5083717;28;20043;-56
2021/01/30 01:21:51;;;;;;;21.20;5.03;;;;;;;6.97;100.00;99525.09;5082864;28;20429;-55
2021/01/30 01:24:18;;;;;;;21.30;6.65;;;;;;;6.94;100.00;99522.78;5085616;28;20306;-53
2021/01/30 01:26:47;;;;;;;20.05;5.40;;;;;;;6.94;100.00;99522.78;5086873;28;20424;-55
2021/01/30 01:29:18;;;;;;;18.92;6.25;;;;;;;6.93;100.00;99531.75;5084710;28;20044;-52
2021/01/30 01:31:50;;;;;;;26.13;6.55;;;;;;;6.88;100.00;99526.94;5080221;28;20040;-54
2021/01/30 01:34:18;;;;;;;22.63;6.22;;;;;;;6.94;100.00;99520.13;5081749;28;20127;-54
2021/01/30 01:36:52;;;;;;;24.60;7.35;;;;;;;6.92;100.00;99522.09;5084005;28;20052;-53
2021/01/30 01:39:19;;;;;;;23.83;6.03;;;;;;;6.96;100.00;99529.59;5077695;28;20033;-57
2021/01/30 01:41:52;;;;;;;17.63;6.05;;;;;;;6.92;100.00;99524.75;5089383;28;20041;-53
2021/01/30 01:44:19;;;;;;;23.70;6.72;;;;;;;6.97;100.00;99527.75;5081939;28;20522;-53
2021/01/30 01:46:46;;;;;;;18.90;7.55;;;;;;;6.96;100.00;99515.47;5086059;28;20036;-54
2021/01/30 01:49:16;;;;;;;20.05;5.53;;;;;;;6.99;100.00;99521.28;5082855;28;20044;-54
2021/01/30 01:51:59;;;;;;;21.67;6.80;;;;;;;7.02;100.00;99518.28;5083366;28;20040;-53
2021/01/30 01:54:27;;;;;;;24.45;6.65;;;;;;;7.03;100.00;99519.94;5086507;28;20036;-54
2021/01/30 01:56:56;;;;;;;26.02;6.38;;;;;;;6.99;100.00;99523.06;5082501;28;20054;-52
2021/01/30 01:59:23;;;;;;;22.88;6.93;;;;;;;6.94;100.00;99517.47;5085961;28;20033;-54
2021/01/30 02:01:51;;;;;;;27.33;6.68;;;;;;;6.96;100.00;99513.66;5081377;28;20467;-53
2021/01/30 02:04:21;;;;;;;24.40;6.88;;;;;;;6.86;100.00;99513.00;5084837;28;20036;-53
2021/01/30 02:06:49;;;;;;;19.95;6.50;;;;;;;6.95;100.00;99516.50;5085779;28;20066;-54
2021/01/30 02:09:19;;;;;;;25.63;6.32;;;;;;;6.93;100.00;99515.81;5084775;28;20037;-54
2021/01/30 02:11:58;;;;;;;19.15;6.75;;;;;;;6.88;100.00;99513.69;5089459;28;20040;-53
2021/01/30 02:14:26;;;;;;;16.38;5.90;;;;;;;6.88;100.00;99505.72;5077926;28;20111;-54
2021/01/30 02:16:59;;;;;;;20.25;5.72;;;;;;;6.87;100.00;99506.72;5087572;28;20439;-54
2021/01/30 02:20:00;;;;;;;23.17;5.90;;;;;;;6.88;100.00;99495.91;5083452;28;20050;-54
2021/01/30 02:22:43;;;;;;;23.60;6.18;;;;;;;6.92;100.00;99492.91;5081715;28;20051;-54
2021/01/30 02:25:41;;;;;;;17.92;5.68;;;;;;;6.90;100.00;99498.41;5080356;28;20036;-54
2021/01/30 02:28:20;;;;;;;20.52;6.90;;;;;;;6.89;100.00;99497.59;5084435;28;20047;-53
2021/01/30 02:31:02;;;;;;;19.35;5.82;;;;;;;6.85;100.00;99498.91;5073186;28;20037;-54
2021/01/30 02:33:45;;;;;;;23.98;6.10;;;;;;;6.83;100.00;99490.31;5079664;28;20042;-54
2021/01/30 02:36:25;;;;;;;21.48;6.28;;;;;;;6.79;100.00;99488.16;5080919;28;20040;-54
2021/01/30 02:38:56;;;;;;;20.65;4.72;;;;;;;6.87;100.00;99480.97;5084035;28;20044;-53
2021/01/30 02:41:26;;;;;;;15.45;6.10;;;;;;;6.82;100.00;99480.69;5087371;28;20062;-56
2021/01/30 02:43:56;;;;;;;20.02;6.03;;;;;;;6.84;100.00;99480.53;5079164;28;20056;-54
2021/01/30 02:46:26;;;;;;;18.35;4.97;;;;;;;6.75;100.00;99471.75;5087735;28;20114;-52
2021/01/30 02:48:56;;;;;;;20.35;4.68;;;;;;;6.79;100.00;99467.78;5082876;28;20044;-53
2021/01/30 02:51:30;;;;;;;16.52;4.25;;;;;;;6.79;100.00;99467.78;5088731;28;20416;-54
2021/01/30 02:54:00;;;;;;;18.88;4.53;;;;;;;6.70;100.00;99464.28;5083201;28;20040;-54
2021/01/30 02:56:27;;;;;;;17.98;5.22;;;;;;;6.77;100.00;99459.13;5080608;28;20051;-54
2021/01/30 02:58:59;;;;;;;16.02;4.20;;;;;;;6.85;100.00;99451.16;5090174;28;20051;-52
2021/01/30 03:01:29;;;;;;;23.27;4.13;;;;;;;6.78;100.00;99450.19;5081250;28;20119;-54
2021/01/30 03:03:57;;;;;;;14.30;4.00;;;;;;;6.92;100.00;99445.16;5078357;28;20059;-52
2021/01/30 03:06:32;;;;;;;17.42;3.67;;;;;;;6.81;100.00;99441.88;5084700;28;20421;-53
2021/01/30 03:09:04;;;;;;;15.20;3.97;;;;;;;6.80;100.00;99431.44;5079143;28;20075;-54
2021/01/30 03:11:46;;;;;;;14.98;4.32;;;;;;;6.81;100.00;99431.25;5089021;28;20466;-57
2021/01/30 03:14:30;;;;;;;14.25;5.68;;;;;;;6.78;100.00;99434.28;5079754;28;20591;-56
2021/01/30 03:17:00;;;;;;;17.95;4.30;;;;;;;6.80;100.00;99432.25;5077558;28;20118;-57
2021/01/30 03:19:30;;;;;;;18.60;5.70;;;;;;;6.87;100.00;99427.91;5088481;28;20462;-51
2021/01/30 03:22:00;;;;;;;15.32;4.65;;;;;;;6.84;100.00;99427.44;5076873;28;20110;-52
2021/01/30 03:24:28;;;;;;;20.35;5.07;;;;;;;6.88;100.00;99423.44;5082031;28;20040;-54
2021/01/30 03:26:55;;;;;;;14.75;4.35;;;;;;;6.91;100.00;99424.94;5079879;28;20086;-53
2021/01/30 03:29:22;;;;;;;30.75;5.13;;;;;;;6.89;100.00;99425.94;5082849;28;20055;-52
2021/01/30 03:31:49;;;;;;;23.48;5.10;;;;;;;6.97;100.00;99426.88;5079638;28;20075;-56
2021/01/30 03:34:17;;;;;;;24.90;4.75;;;;;;;6.97;100.00;99419.75;5078176;28;20082;-55
2021/01/30 03:36:44;;;;;;;20.05;4.43;;;;;;;7.00;100.00;99415.91;5084604;28;20051;-57
2021/01/30 03:39:14;;;;;;;14.88;4.53;;;;;;;6.83;100.00;99417.81;5079237;28;20420;-56
2021/01/30 03:41:42;;;;;;;12.77;4.03;;;;;;;6.86;100.00;99418.31;5084021;28;20044;-56
2021/01/30 03:44:10;;;;;;;20.50;6.63;;;;;;;6.85;100.00;99418.50;5074644;28;20036;-56
2021/01/30 03:46:37;;;;;;;15.50;5.47;;;;;;;6.86;100.00;99410.34;5083290;28;20043;-56
2021/01/30 03:49:04;;;;;;;11.88;4.30;;;;;;;6.90;100.00;99416.13;5082927;28;20046;-57
2021/01/30 03:51:31;;;;;;;11.60;3.97;;;;;;;6.96;100.00;99419.91;5080362;28;20044;-57
2021/01/30 03:53:58;;;;;;;19.00;5.25;;;;;;;6.91;100.00;99416.97;5086294;28;20043;-57
2021/01/30 03:56:25;;;;;;;23.98;5.65;;;;;;;6.87;100.00;99419.94;5078236;28;20052;-55
2021/01/30 03:58:52;;;;;;;16.15;4.68;;;;;;;6.86;100.00;99415.66;5085235;28;20040;-55
2021/01/30 04:01:19;;;;;;;15.50;5.38;;;;;;;6.83;100.00;99413.38;5077757;28;20406;-55
2021/01/30 04:03:47;;;;;;;19.63;5.75;;;;;;;6.69;100.00;99414.06;5076757;28;20055;-56
2021/01/30 04:06:20;;;;;;;14.02;4.82;;;;;;;6.67;100.00;99410.75;5089111;28;20139;-57
2021/01/30 04:08:46;;;;;;;18.23;4.85;;;;;;;6.65;100.00;99410.94;5074323;28;20041;-57
2021/01/30 04:11:13;;;;;;;18.30;5.57;;;;;;;6.63;100.00;99404.97;5083782;28;20047;-55
2021/01/30 04:13:41;;;;;;;18.15;5.75;;;;;;;6.65;100.00;99407.44;5079044;28;20336;-57
2021/01/30 04:16:08;;;;;;;22.25;5.20;;;;;;;6.68;100.00;99399.16;5082046;28;20044;-53
2021/01/30 04:18:35;;;;;;;16.13;5.25;;;;;;;6.73;100.00;99399.44;5080737;28;20435;-57
2021/01/30 04:21:02;;;;;;;20.30;5.22;;;;;;;6.63;100.00;99396.19;5083500;28;20313;-57
2021/01/30 04:23:29;;;;;;;16.60;5.85;;;;;;;6.68;100.00;99396.50;5078229;28;20047;-56
2021/01/30 04:25:56;;;;;;;19.20;5.55;;;;;;;6.62;100.00;99402.47;5079696;28;20040;-54
2021/01/30 04:28:23;;;;;;;26.35;6.88;;;;;;;6.74;100.00;99395.81;5087138;28;20388;-56
2021/01/30 04:30:50;;;;;;;18.13;6.32;;;;;;;6.70;100.00;99391.84;5080585;28;20336;-56
2021/01/30 04:33:18;;;;;;;18.75;5.60;;;;;;;6.69;100.00;99393.69;5080472;28;20127;-55
2021/01/30 04:35:45;;;;;;;22.67;6.63;;;;;;;6.67;100.00;99389.53;5081681;28;20603;-54
2021/01/30 04:38:11;;;;;;;26.20;7.28;;;;;;;6.68;100.00;99383.25;5080229;28;20041;-53
2021/01/30 04:40:44;;;;;;;26.23;8.45;;;;;;;6.62;100.00;99375.97;5080714;28;20051;-55
2021/01/30 04:43:15;;;;;;;28.17;6.88;;;;;;;6.61;100.00;99379.63;5074301;28;20043;-55
2021/01/30 04:45:52;;;;;;;24.85;7.07;;;;;;;6.57;100.00;99380.97;5084665;28;20040;-55
2021/01/30 04:48:28;;;;;;;27.30;6.85;;;;;;;6.54;100.00;99380.31;5077584;28;20034;-55
2021/01/30 04:50:59;;;;;;;17.67;5.93;;;;;;;6.69;100.00;99376.91;5083643;28;20051;-54
2021/01/30 04:53:45;;;;;;;20.50;5.45;;;;;;;6.80;100.00;99365.09;5077067;28;20071;-55
2021/01/30 04:56:19;;;;;;;17.45;5.88;;;;;;;6.88;100.00;99363.22;5076042;28;20052;-56
2021/01/30 04:58:50;;;;;;;17.10;5.50;;;;;;;6.78;100.00;99359.97;5084582;28;20052;-58
2021/01/30 05:01:25;;;;;;;19.58;7.13;;;;;;;6.89;100.00;99361.41;5080808;28;20052;-58
2021/01/30 05:04:01;;;;;;;19.95;5.88;;;;;;;6.74;100.00;99358.66;5078630;28;20847;-58
2021/01/30 05:06:41;;;;;;;;;;;;;;;6.81;100.00;99358.81;5084759;28;20059;-57
2021/01/30 05:09:12;;;;;;;15.75;5.90;;;;;;;6.88;100.00;99357.09;5080746;28;20333;-57
2021/01/30 05:11:39;;;;;;;16.67;7.38;;;;;;;6.38;100.00;99351.22;5080961;28;20044;-54
2021/01/30 05:14:11;;;;;;;9.75;5.97;;;;;;;5.77;100.00;99362.25;5077706;28;20037;-56
2021/01/30 05:16:54;;;;;;;8.32;5.00;;;;;;;5.46;100.00;99355.00;5080397;28;20052;-56
2021/01/30 05:19:21;;;;;;;6.10;3.75;;;;;;;5.04;100.00;99347.19;5077851;28;20108;-54
2021/01/30 05:21:52;;;;;;;6.90;3.78;;;;;;;4.72;100.00;99346.97;5082274;28;20047;-55
2021/01/30 05:24:21;;;;;;;6.75;3.83;;;;;;;4.57;100.00;99349.38;5079706;28;20037;-56
2021/01/30 05:26:52;;;;;;;6.93;3.38;;;;;;;4.39;100.00;99349.47;5077819;28;20033;-53
2021/01/30 05:29:24;;;;;;;6.85;3.28;;;;;;;4.10;100.00;99347.19;5083059;28;20320;-56
2021/01/30 05:31:55;;;;;;;5.70;3.47;;;;;;;3.79;100.00;99345.84;5082620;28;20067;-54
2021/01/30 05:34:25;;;;;;;6.97;3.85;;;;;;;3.73;100.00;99345.66;5079016;28;20109;-55
2021/01/30 05:36:56;;;;;;;5.90;3.47;;;;;;;3.49;100.00;99338.38;5082817;28;20036;-55
2021/01/30 05:39:35;;;;;;;4.25;2.58;;;;;;;3.35;100.00;99335.31;5078876;28;20116;-56
2021/01/30 05:42:08;;;;;;;8.25;3.92;;;;;;;3.16;100.00;99338.97;5085404;28;20044;-55
2021/01/30 05:44:41;;;;;;;6.78;3.50;;;;;;;3.19;100.00;99337.81;5079852;28;20040;-57
2021/01/30 05:47:13;;;;;;;8.30;4.30;;;;;;;3.06;100.00;99338.19;5086607;28;20055;-55
2021/01/30 05:49:49;;;;;;;9.30;4.57;;;;;;;3.03;100.00;99334.03;5085515;28;20309;-56
2021/01/30 05:52:19;;;;;;;9.70;4.72;;;;;;;3.03;100.00;99334.03;5082499;28;20051;-54
2021/01/30 05:54:46;;;;;;;11.93;5.38;;;;;;;2.91;100.00;99329.97;5085705;28;20052;-55
2021/01/30 05:57:15;;;;;;;12.90;5.82;;;;;;;2.90;100.00;99331.78;5081898;28;20336;-57
2021/01/30 05:59:43;;;;;;;15.60;7.15;;;;;;;2.91;100.00;99335.25;5078216;28;20048;-57
2021/01/30 06:02:11;;;;;;;12.55;6.25;;;;;;;2.88;100.00;99325.84;5084254;28;20051;-56
2021/01/30 06:04:39;;;;;;;14.23;6.78;;;;;;;2.83;100.00;99324.63;5081639;28;20048;-54
2021/01/30 06:07:07;;;;;;;13.52;6.32;;;;;;;2.71;100.00;99322.19;5088304;28;20370;-55
2021/01/30 06:09:36;;;;;;;14.27;7.60;;;;;;;2.75;100.00;99318.28;5080707;28;20047;-56
2021/01/30 06:12:18;;;;;;;16.13;7.45;;;;;;;2.79;100.00;99320.63;5089116;28;20044;-54
2021/01/30 06:14:46;;;;;;;17.30;7.13;;;;;;;2.81;100.00;99319.50;5080960;28;20040;-52
2021/01/30 06:17:29;;;;;;;15.90;7.32;;;;;;;2.75;100.00;99315.66;5087006;28;20045;-55
2021/01/30 06:20:04;;;;;;;15.95;7.60;;;;;;;2.64;100.00;99317.69;5089628;28;20048;-53
2021/01/30 06:22:31;;;;;;;18.67;7.28;;;;;;;2.64;100.00;99315.06;5082880;28;20059;-57
2021/01/30 06:24:58;;;;;;;14.77;7.15;;;;;;;2.55;100.00;99308.84;5084853;28;20048;-57
2021/01/30 06:27:29;;;;;;;17.33;7.95;;;;;;;2.49;100.00;99304.16;5082984;28;20035;-56
2021/01/30 06:29:59;;;;;;;15.20;7.75;;;;;;;2.52;100.00;99303.88;5086452;28;20120;-57
2021/01/30 06:32:33;;;;;;;15.77;7.55;;;;;;;2.52;100.00;99302.09;5083630;28;20052;-56
2021/01/30 06:35:09;;;;;;;17.38;7.80;;;;;;;2.52;100.00;99304.72;5078217;28;20068;-57
2021/01/30 06:37:43;;;;;;;18.10;8.38;;;;;;;2.51;100.00;99307.47;5088361;28;20051;-55
2021/01/30 06:40:22;;;;;;;14.30;6.60;;;;;;;2.52;100.00;99294.19;5083624;28;20048;-56
2021/01/30 06:42:51;;;;;;;20.60;8.43;;;;;;;2.52;100.00;99306.50;5087954;28;20040;-55
2021/01/30 06:45:27;;;;;;;20.75;8.50;;;;;;;2.48;100.00;99291.97;5082606;28;20045;-56
2021/01/30 06:47:54;;;;;;;16.92;8.38;;;;;;;2.46;100.00;99299.19;5082953;28;20112;-56
2021/01/30 06:50:31;;;;;;;17.25;7.97;;;;;;;2.50;100.00;99295.28;5088988;28;20051;-54
2021/01/30 06:53:14;;;;;;;19.20;8.18;;;;;;;2.38;100.00;99282.31;5082794;28;20048;-56
2021/01/30 06:55:41;;;;;;;17.33;7.60;;;;;;;2.41;100.00;99297.84;5084465;28;20059;-55
2021/01/30 06:58:12;;;;;;;14.75;7.25;;;;;;;2.33;100.00;99289.00;5084381;28;20388;-56
2021/01/30 07:00:39;;;;;;;17.67;7.53;;;;;;;2.28;100.00;99286.78;5083957;28;20059;-55
2021/01/30 07:03:12;;;;;;;14.13;6.50;;;;;;;2.29;100.00;99285.84;5080895;28;20037;-54
2021/01/30 07:05:46;;;;;;;18.95;6.93;;;;;;;2.22;100.00;99292.66;5083199;28;20091;-55
2021/01/30 07:08:43;;;;;;;16.70;8.27;;;;;;;2.13;100.00;99286.47;5086899;28;20040;-55
2021/01/30 07:11:29;;;;;;;13.95;7.38;;;;;;;2.18;100.00;99286.88;5084181;28;20412;-54
2021/01/30 07:14:02;;;;;;;11.55;6.55;;;;;;;2.06;100.00;99288.84;5076038;28;20045;-55
2021/01/30 07:16:37;;;;;;;14.15;5.63;;;;;;;2.01;100.00;99291.13;5083960;28;20127;-56
2021/01/30 07:19:12;;;;;;;19.08;6.93;;;;;;;1.96;100.00;99293.34;5083337;28;20044;-55
2021/01/30 07:21:43;;;;;;;17.75;7.70;;;;;;;2.00;100.00;99294.72;5087622;28;20347;-55
2021/01/30 07:24:22;;;;;;;17.63;7.40;;;;;;;1.94;100.00;99302.34;5082517;28;20082;-55
2021/01/30 07:26:53;;;;;;;14.82;6.10;;;;;;;1.92;100.00;99291.16;5083169;28;20087;-52
2021/01/30 07:29:32;;;;;;;18.05;7.78;;;;;;;1.93;100.00;99291.00;5085852;28;20051;-54
2021/01/30 07:32:04;;;;;;;16.75;7.40;;;;;;;1.95;100.00;99291.66;5080372;28;20045;-55
2021/01/30 07:34:37;;;;;;;19.00;7.45;;;;;;;1.94;100.00;99297.09;5082056;28;20045;-55
2021/01/30 07:37:08;;;;;;;16.90;8.52;;;;;;;1.89;100.00;99284.38;5085515;28;20072;-55
2021/01/30 07:39:42;;;;;;;18.38;8.25;;;;;;;1.89;100.00;99298.34;5081029;28;20051;-55
2021/01/30 07:42:13;;;;;;;19.33;8.45;;;;;;;1.85;100.00;99281.19;5076063;28;20036;-55
2021/01/30 07:44:53;;;;;;;17.70;8.13;;;;;;;1.93;100.00;99290.16;5077677;28;21671;-54
2021/01/30 07:47:24;;;;;;;17.63;8.18;;;;;;;1.92;100.00;99288.50;5085321;28;20059;-56
2021/01/30 07:49:57;;;;;;;17.75;7.78;;;;;;;1.90;100.00;99283.41;5083280;28;20123;-53
2021/01/30 07:52:26;;;;;;;18.98;7.97;;;;;;;1.88;100.00;99285.31;5079504;28;20047;-54
2021/01/30 07:54:55;;;;;;;14.95;7.30;;;;;;;1.84;100.00;99284.81;5080350;28;20335;-56
2021/01/30 07:57:39;;;;;;;16.92;7.93;;;;;;;1.90;100.00;99280.75;5081724;28;20044;-55
2021/01/30 08:00:09;;;;;;;17.63;6.68;;;;;;;1.95;100.00;99291.66;5083270;28;20071;-54
2021/01/30 08:02:44;;;;;;;14.95;7.88;;;;;;;1.83;100.00;99275.25;5084738;28;20455;-55
2021/01/30 08:05:28;;;;;;;16.67;8.13;;;;;;;1.85;100.00;99283.00;5077288;28;20457;-55
2021/01/30 08:07:57;;;;;;;17.50;7.85;;;;;;;1.86;100.00;99287.28;5087591;28;20063;-52
2021/01/30 08:10:39;;;;;;;14.65;7.95;;;;;;;1.85;100.00;99275.09;5081476;28;20046;-51
2021/01/30 08:13:14;;;;;;;12.77;6.10;;;;;;;1.95;100.00;99278.50;5077618;28;20055;-55
2021/01/30 08:15:48;;;;;;;17.85;8.32;;;;;;;1.93;100.00;99272.56;5084627;28;20044;-55
2021/01/30 08:18:24;;;;;;;17.50;7.93;;;;;;;1.92;100.00;99276.16;5076027;28;20547;-54
2021/01/30 08:20:55;;;;;;;13.43;6.65;;;;;;;1.93;100.00;99277.84;5081018;28;20321;-54
2021/01/30 08:23:34;;;;;;;14.32;5.93;;;;;;;1.89;100.00;99265.94;5080025;28;20036;-54
2021/01/30 08:26:04;;;;;;;16.00;7.00;;;;;;;1.89;100.00;99272.03;5078325;28;20045;-54
2021/01/30 08:28:35;;;;;;;15.45;6.57;;;;;;;1.89;100.00;99256.22;5081373;28;20048;-56
2021/01/30 08:31:02;;;;;;;13.55;6.90;;;;;;;1.86;100.00;99266.22;5080545;28;20368;-54
2021/01/30 08:34:00;;;;;;;11.07;5.95;;;;;;;1.84;100.00;99266.38;5080990;28;20048;-54
2021/01/30 08:36:34;;;;;;;13.05;7.13;;;;;;;1.92;100.00;99256.91;5080676;28;20312;-55
2021/01/30 08:39:07;;;;;;;18.25;7.60;;;;;;;1.92;100.00;99249.03;5079940;28;20051;-56
2021/01/30 08:41:43;;;;;;;16.10;6.93;;;;;;;1.86;100.00;99253.06;5078291;28;20047;-54
2021/01/30 08:44:35;;;;;;;11.70;6.28;;;;;;;1.86;100.00;99253.06;5073186;28;20044;-56
2021/01/30 08:47:16;;;;;;;13.43;6.07;;;;;;;1.83;100.00;99255.97;5084175;28;20058;-55
2021/01/30 08:49:55;;;;;;;12.20;6.57;;;;;;;1.79;100.00;99244.09;5081180;28;20040;-55
2021/01/30 08:52:37;;;;;;;9.93;5.15;;;;;;;1.80;100.00;99243.94;5076009;28;20044;-54
2021/01/30 08:55:36;;;;;;;13.02;7.05;;;;;;;1.87;100.00;99246.81;5081740;28;20139;-54
2021/01/30 08:58:03;;;;;;;13.15;5.38;;;;;;;1.78;100.00;99243.25;5064314;28;20337;-54
2021/01/30 09:00:53;;;;;;;9.80;4.72;;;;;;;1.75;100.00;99238.28;5081952;28;20045;-56
2021/01/30 09:03:47;;;;;;;10.93;5.63;;;;;;;1.77;100.00;99246.03;5078527;28;20074;-56
2021/01/30 09:06:53;;;;;;;9.88;5.10;;;;;;;1.81;100.00;99244.75;5077527;28;20048;-55
2021/01/30 09:09:23;;;;;;;10.30;4.68;;;;;;;1.73;100.00;99234.97;5079423;28;20063;-54
2021/01/30 09:11:51;;;;;;;12.88;5.78;;;;;;;1.71;100.00;99231.63;5084876;28;20054;-55
2021/01/30 09:14:38;;;;;;;10.40;4.85;;;;;;;1.76;100.00;99233.81;5079206;28;20044;-55
2021/01/30 09:17:33;;;;;;;10.98;5.18;;;;;;;1.71;100.00;99232.47;5081290;28;20062;-55
2021/01/30 09:20:11;;;;;;;10.60;5.00;;;;;;;1.70;100.00;99225.56;5076875;28;20507;-56
2021/01/30 09:22:51;;;;;;;11.40;5.43;;;;;;;1.68;100.00;99222.22;5083934;28;20406;-54
2021/01/30 09:25:24;;;;;;;7.38;3.80;;;;;;;1.72;100.00;99217.50;5083374;28;20040;-55
2021/01/30 09:27:57;;;;;;;10.80;5.00;;;;;;;1.70;100.00;99222.06;5086029;28;20123;-55
2021/01/30 09:30:32;;;;;;;8.70;4.00;;;;;;;1.70;100.00;99219.44;5080849;28;20345;-54
2021/01/30 09:33:04;;;;;;;9.20;4.75;;;;;;;1.67;100.00;99225.84;5086187;28;20295;-54
2021/01/30 09:35:35;;;;;;;10.45;4.60;;;;;;;1.64;100.00;99215.59;5075255;28;20059;-56
2021/01/30 09:38:18;;;;;;;11.57;5.78;;;;;;;1.71;100.00;99211.41;5087069;28;20042;-56
2021/01/30 09:40:46;;;;;;;10.85;4.30;;;;;;;1.66;100.00;99215.44;5082237;28;20052;-53
2021/01/30 09:43:13;;;;;;;13.18;5.72;;;;;;;1.67;100.00;99223.22;5082420;28;20052;-53
2021/01/30 09:45:47;;;;;;;8.23;3.97;;;;;;;1.56;100.00;99212.88;5086528;28;20048;-54
2021/01/30 09:48:15;;;;;;;11.23;5.53;;;;;;;1.51;100.00;99192.25;5080068;28;20039;-54
2021/01/30 09:50:45;;;;;;;8.43;4.15;;;;;;;1.55;100.00;99206.75;5080525;28;20050;-54
2021/01/30 09:53:13;;;;;;;6.45;3.08;;;;;;;1.60;100.00;99208.13;5081044;28;20047;-51
2021/01/30 09:55:40;;;;;;;6.35;2.75;;;;;;;1.58;100.00;99203.03;5084036;28;20051;-54
2021/01/30 09:58:11;;;;;;;6.93;3.20;;;;;;;1.56;100.00;99207.63;5084590;28;20118;-55
2021/01/30 10:00:39;;;;;;;5.25;2.63;;;;;;;1.56;100.00;99204.97;5083274;28;20044;-53
2021/01/30 10:03:10;;;;;;;7.38;4.13;;;;;;;1.67;100.00;99210.06;5089498;28;20038;-53
2021/01/30 10:05:37;;;;;;;7.13;3.15;;;;;;;1.59;100.00;99199.44;5080683;28;20044;-53
2021/01/30 10:08:23;;;;;;;11.55;4.90;;;;;;;1.62;100.00;99204.41;5084490;28;20344;-55
2021/01/30 10:11:01;;;;;;;10.75;4.93;;;;;;;1.65;100.00;99201.47;5084810;28;20055;-51
2021/01/30 10:13:28;;;;;;;6.57;3.58;;;;;;;1.60;100.00;99202.88;5081249;28;20044;-53
2021/01/30 10:15:56;;;;;;;6.28;3.75;;;;;;;1.58;100.00;99197.75;5091009;28;20323;-55
2021/01/30 10:18:26;;;;;;;8.07;4.57;;;;;;;1.62;100.00;99196.50;5080105;28;20059;-53
2021/01/30 10:20:56;;;;;;;8.65;4.50;;;;;;;1.64;100.00;99204.25;5083370;28;20040;-55
2021/01/30 10:23:31;;;;;;;8.88;3.95;;;;;;;1.68;100.00;99197.72;5081562;28;20465;-53
2021/01/30 10:26:09;;;;;;;7.37;3.50;;;;;;;1.73;100.00;99192.84;5087628;28;20309;-54
2021/01/30 10:28:49;;;;;;;7.63;3.63;;;;;;;1.60;100.00;99193.16;5085665;28;20055;-54
2021/01/30 10:31:18;;;;;;;9.85;4.40;;;;;;;1.66;100.00;99197.03;5079486;28;20573;-50
2021/01/30 10:33:50;;;;;;;8.90;4.15;;;;;;;1.65;100.00;99198.00;5083513;28;20068;-55
2021/01/30 10:36:21;;;;;;;10.57;4.68;;;;;;;1.63;100.00;99195.53;5086203;28;20468;-54
2021/01/30 10:38:50;;;;;;;11.48;3.85;;;;;;;1.60;100.00;99192.34;5081012;28;20044;-54
2021/01/30 10:41:19;;;;;;;7.60;3.92;;;;;;;1.47;100.00;99187.41;5088960;28;20048;-55
2021/01/30 10:43:48;;;;;;;9.52;4.38;;;;;;;1.44;100.00;99183.25;5079688;28;20558;-56
2021/01/30 10:46:18;;;;;;;9.27;4.47;;;;;;;1.44;100.00;99182.44;5084641;28;20093;-56
2021/01/30 10:48:46;;;;;;;10.32;4.68;;;;;;;1.47;100.00;99187.41;5085659;28;20044;-55
2021/01/30 10:51:22;;;;;;;11.15;5.68;;;;;;;1.35;100.00;99184.16;5080801;28;20055;-53
2021/01/30 10:53:49;;;;;;;11.32;4.72;;;;;;;1.43;100.00;99181.59;5084263;28;20435;-55
2021/01/30 10:56:22;;;;;;;11.82;5.85;;;;;;;1.40;100.00;99174.00;5082503;28;20036;-52
2021/01/30 10:58:51;;;;;;;8.60;3.78;;;;;;;1.33;100.00;99163.25;5086439;28;20059;-56
2021/01/30 11:01:29;;;;;;;12.77;5.47;;;;;;;1.34;100.00;99182.47;5080639;28;20043;-54
2021/01/30 11:03:59;;;;;;;8.18;4.78;;;;;;;1.42;100.00;99169.44;5078916;28;20043;-55
2021/01/30 11:06:30;;;;;;;15.75;7.00;;;;;;;1.42;100.00;99173.84;5084120;28;20063;-54
2021/01/30 11:08:57;;;;;;;12.98;5.90;;;;;;;1.54;100.00;99177.97;5077929;28;20052;-50
2021/01/30 11:11:27;;;;;;;15.57;6.47;;;;;;;1.54;100.00;99180.59;5088254;28;20051;-55
2021/01/30 11:13:57;;;;;;;17.45;7.57;;;;;;;1.53;100.00;99169.25;5081969;28;20052;-53
2021/01/30 11:16:37;;;;;;;12.55;5.30;;;;;;;1.43;100.00;99170.25;5080994;28;20041;-53
2021/01/30 11:19:20;;;;;;;9.70;4.25;;;;;;;1.43;100.00;99165.00;5080470;28;20058;-54
2021/01/30 11:21:48;;;;;;;15.60;6.47;;;;;;;1.50;100.00;99166.91;5082480;28;20048;-55
2021/01/30 11:24:27;;;;;;;16.73;7.93;;;;;;;1.47;100.00;99156.66;5083543;28;20051;-55
2021/01/30 11:26:55;;;;;;;11.55;6.00;;;;;;;1.41;100.00;99161.69;5077522;28;20070;-52
2021/01/30 11:29:37;;;;;;;18.02;7.53;;;;;;;1.53;100.00;99160.50;5086741;28;20343;-54
2021/01/30 11:32:07;;;;;;;16.60;5.57;;;;;;;1.54;100.00;99156.91;5082608;28;20046;-53
2021/01/30 11:34:34;;;;;;;18.95;8.75;;;;;;;1.54;100.00;99151.66;5079569;28;20048;-55
2021/01/30 11:37:04;;;;;;;20.08;9.27;;;;;;;1.64;100.00;99148.97;5084401;28;20117;-54
2021/01/30 11:39:33;;;;;;;16.52;7.20;;;;;;;1.55;100.00;99137.53;5081558;28;20044;-55
2021/01/30 11:42:00;;;;;;;13.57;7.57;;;;;;;1.53;100.00;99136.84;5085480;28;20056;-54
2021/01/30 11:44:27;;;;;;;15.23;6.95;;;;;;;1.63;100.00;99124.47;5077768;28;20048;-55
2021/01/30 11:46:56;;;;;;;16.50;7.93;;;;;;;1.59;100.00;99128.38;5086447;28;20493;-53
2021/01/30 11:49:23;;;;;;;15.35;6.88;;;;;;;1.47;100.00;99129.53;5080548;28;20047;-54